Time;durP1;ratioP1;P1;durP2;ratioP2;P2;SDS_P1;SDS_P2;PMS_P1;PMS_P2;Temp;Humidity;BMP_temperature;BMP_pressure;BME280_temperature;BME280_humidity;BME280_pressure;Samples;Min_cycle;Max_cycle;Signal;HPM_P1;HPM_P2
2022/04/30 00:00:58;;;;;;;1.15;1.08;;;10.40;65.10;;;;;;5098523;28;20047;-62
2022/04/30 00:03:26;;;;;;;0.70;0.70;;;10.30;65.00;;;;;;5076132;28;20027;-62
2022/04/30 00:05:52;;;;;;;2.20;0.93;;;10.30;65.00;;;;;;5093633;28;20038;-59
2022/04/30 00:08:18;;;;;;;0.57;0.52;;;10.30;65.10;;;;;;5099618;28;20099;-59
2022/04/30 00:10:44;;;;;;;0.55;0.52;;;10.30;65.10;;;;;;5112769;28;20048;-56
2022/04/30 00:13:12;;;;;;;0.70;0.70;;;10.20;65.80;;;;;;5121665;28;20474;-59
2022/04/30 00:15:39;;;;;;;1.63;1.00;;;10.20;65.30;;;;;;5117993;28;20062;-59
2022/04/30 00:18:05;;;;;;;0.88;0.88;;;10.10;65.30;;;;;;5129304;28;20536;-59
2022/04/30 00:20:32;;;;;;;1.23;0.98;;;10.10;65.30;;;;;;5130089;28;20088;-58
2022/04/30 00:22:57;;;;;;;2.45;1.15;;;10.10;65.40;;;;;;5102911;28;20039;-58
2022/04/30 00:25:23;;;;;;;7.47;1.15;;;10.10;65.50;;;;;;5114445;28;20046;-61
2022/04/30 00:27:50;;;;;;;1.80;1.05;;;10.00;65.50;;;;;;5090280;28;20020;-62
2022/04/30 00:30:15;;;;;;;1.00;1.00;;;10.00;65.60;;;;;;5119047;28;20039;-58
2022/04/30 00:32:42;;;;;;;0.57;0.57;;;10.00;65.70;;;;;;5070512;28;20505;-58
2022/04/30 00:35:08;;;;;;;1.60;0.90;;;9.90;65.80;;;;;;5090694;28;20035;-58
2022/04/30 00:37:33;;;;;;;0.98;0.90;;;9.90;65.80;;;;;;5108702;28;20073;-61
2022/04/30 00:39:59;;;;;;;1.10;0.85;;;9.80;65.90;;;;;;5109030;28;20401;-61
2022/04/30 00:42:25;;;;;;;1.55;0.85;;;9.80;65.90;;;;;;5092481;28;20071;-61
2022/04/30 00:44:51;;;;;;;3.38;0.95;;;9.80;66.10;;;;;;5108171;28;20035;-61
2022/04/30 00:47:18;;;;;;;1.13;1.02;;;9.80;66.10;;;;;;5094365;28;20024;-61
2022/04/30 00:49:45;;;;;;;4.93;1.00;;;9.70;66.20;;;;;;5109093;28;20110;-61
2022/04/30 00:52:15;;;;;;;0.93;0.88;;;9.70;66.30;;;;;;5113029;28;20036;-61
2022/04/30 00:54:42;;;;;;;4.10;0.93;;;9.70;66.50;;;;;;5112463;28;20091;-61
2022/04/30 00:57:15;;;;;;;0.85;0.70;;;9.70;66.70;;;;;;5126398;27;20065;-61
2022/04/30 00:59:44;;;;;;;1.23;0.70;;;9.60;66.80;;;;;;5122874;27;20513;-61
2022/04/30 01:02:11;;;;;;;1.38;1.23;;;9.60;66.80;;;;;;5109786;28;20032;-62
2022/04/30 01:04:37;;;;;;;2.25;1.35;;;9.60;66.80;;;;;;5111927;27;20024;-61
2022/04/30 01:07:09;;;;;;;1.55;1.00;;;9.50;66.90;;;;;;5114044;27;20042;-61
2022/04/30 01:09:39;;;;;;;1.52;1.30;;;9.50;67.00;;;;;;5111263;28;20032;-61
2022/04/30 01:12:10;;;;;;;1.20;1.10;;;9.50;67.00;;;;;;5112118;27;20024;-61
2022/04/30 01:14:38;;;;;;;1.95;1.10;;;9.40;67.20;;;;;;5129508;27;20370;-61
2022/04/30 01:17:06;;;;;;;3.08;1.10;;;9.40;67.20;;;;;;5132559;27;20027;-61
2022/04/30 01:19:35;;;;;;;1.30;1.13;;;9.40;67.40;;;;;;5113551;27;20032;-61
2022/04/30 01:22:08;;;;;;;1.05;0.95;;;9.30;67.50;;;;;;5132382;27;20031;-61
2022/04/30 01:24:35;;;;;;;2.65;1.70;;;9.30;67.50;;;;;;5130526;27;20089;-61
2022/04/30 01:27:02;;;;;;;1.27;0.88;;;9.30;67.70;;;;;;5095651;28;20146;-61
2022/04/30 01:29:33;;;;;;;2.40;1.73;;;9.30;67.70;;;;;;5106449;27;20031;-61
2022/04/30 01:37:29;;;;;;;3.65;1.27;;;9.20;67.90;;;;;;5109916;27;20111;-58
2022/04/30 01:40:03;;;;;;;3.60;1.42;;;9.20;67.90;;;;;;5110101;27;20032;-58
2022/04/30 01:42:31;;;;;;;2.88;1.48;;;9.20;68.10;;;;;;5091358;27;20035;-58
2022/04/30 01:44:58;;;;;;;0.98;0.98;;;9.10;68.10;;;;;;5089499;28;20080;-58
2022/04/30 01:47:25;;;;;;;2.75;1.23;;;9.10;68.20;;;;;;5096347;27;20031;-59
2022/04/30 01:49:52;;;;;;;5.95;1.55;;;9.10;68.30;;;;;;5110039;28;20028;-58
2022/04/30 01:52:18;;;;;;;2.90;1.60;;;9.00;68.30;;;;;;5083915;28;20545;-58
2022/04/30 01:54:44;;;;;;;1.73;1.58;;;9.00;68.40;;;;;;5107464;28;20099;-58
2022/04/30 01:57:10;;;;;;;2.13;1.33;;;9.00;68.70;;;;;;5100584;28;20036;-58
2022/04/30 01:59:36;;;;;;;1.50;1.40;;;9.00;68.90;;;;;;5119306;27;20034;-58
2022/04/30 02:02:03;;;;;;;2.85;2.05;;;8.90;68.90;;;;;;5111111;27;20039;-59
2022/04/30 02:04:31;;;;;;;2.35;2.03;;;8.90;69.00;;;;;;5123701;27;20027;-58
2022/04/30 02:07:01;;;;;;;1.50;1.15;;;8.90;69.00;;;;;;5097734;28;20371;-58
2022/04/30 02:09:28;;;;;;;1.38;1.27;;;8.90;69.00;;;;;;5111429;28;20057;-58
2022/04/30 02:12:01;;;;;;;1.90;1.45;;;8.90;69.10;;;;;;5110299;28;20066;-59
2022/04/30 02:14:31;;;;;;;3.90;1.55;;;8.90;69.20;;;;;;5110969;27;20023;-61
2022/04/30 02:17:00;;;;;;;1.63;1.23;;;8.80;69.30;;;;;;5094219;27;20065;-62
2022/04/30 02:19:28;;;;;;;2.35;1.35;;;8.80;69.50;;;;;;5112123;27;20027;-61
2022/04/30 02:21:57;;;;;;;1.95;1.30;;;8.70;69.50;;;;;;5119406;27;20035;-59
2022/04/30 02:24:25;;;;;;;1.92;1.65;;;8.70;69.60;;;;;;5121789;27;20063;-59
2022/04/30 02:26:51;;;;;;;4.05;2.00;;;8.70;69.80;;;;;;5130787;27;20019;-59
2022/04/30 02:29:16;;;;;;;2.67;1.63;;;8.70;69.80;;;;;;5126067;27;20200;-58
2022/04/30 02:31:42;;;;;;;2.28;1.70;;;8.70;70.00;;;;;;5110587;27;20042;-59
2022/04/30 02:34:08;;;;;;;3.00;2.03;;;8.60;70.00;;;;;;5118240;27;20073;-61
2022/04/30 02:36:34;;;;;;;4.90;1.55;;;8.60;70.10;;;;;;5126688;27;20031;-58
2022/04/30 02:39:00;;;;;;;1.30;1.17;;;8.60;70.20;;;;;;5104208;27;20033;-58
2022/04/30 02:41:28;;;;;;;2.15;1.60;;;8.60;70.40;;;;;;5127473;27;20044;-61
2022/04/30 02:43:54;;;;;;;3.95;1.58;;;8.60;70.50;;;;;;5107841;27;20034;-61
2022/04/30 02:46:20;;;;;;;2.22;1.50;;;8.60;70.60;;;;;;5112494;27;20026;-61
2022/04/30 02:48:47;;;;;;;1.75;1.27;;;8.50;70.60;;;;;;5093528;27;20032;-61
2022/04/30 02:51:15;;;;;;;3.97;2.15;;;8.50;70.80;;;;;;5130677;27;20049;-61
2022/04/30 02:53:41;;;;;;;1.75;1.65;;;8.50;70.90;;;;;;5119121;27;20043;-61
2022/04/30 02:56:11;;;;;;;1.30;1.20;;;8.50;71.00;;;;;;5131123;27;20039;-61
2022/04/30 03:01:21;;;;;;;3.88;1.55;;;8.50;71.10;;;;;;5095880;28;20092;-61
2022/04/30 03:03:47;;;;;;;4.20;2.38;;;8.50;71.10;;;;;;5113226;27;20468;-61
2022/04/30 03:06:14;;;;;;;1.73;1.38;;;8.50;71.00;;;;;;5127706;27;20124;-61
2022/04/30 03:08:40;;;;;;;3.42;1.80;;;8.40;71.10;;;;;;5128744;27;20377;-61
2022/04/30 03:11:07;;;;;;;4.72;2.00;;;8.40;71.20;;;;;;5080043;28;20032;-61
2022/04/30 03:13:35;;;;;;;3.17;2.10;;;8.40;71.40;;;;;;5109177;28;20031;-62
2022/04/30 03:21:42;;;;;;;1.63;1.42;;;8.30;71.40;;;;;;5110014;28;20420;-61
2022/04/30 03:21:47;;;;;;;2.47;1.48;;;8.20;71.50;;;;;;5083660;28;20042;-61
2022/04/30 03:24:18;;;;;;;2.10;1.85;;;8.20;71.60;;;;;;5092802;28;20110;-61
2022/04/30 03:26:48;;;;;;;4.40;1.90;;;8.20;71.70;;;;;;5070430;28;20036;-61
2022/04/30 03:29:15;;;;;;;3.75;2.47;;;8.20;71.70;;;;;;5097375;28;20008;-61
2022/04/30 03:31:42;;;;;;;3.65;2.42;;;8.20;71.90;;;;;;5105658;28;20043;-61
2022/04/30 03:34:09;;;;;;;1.83;1.52;;;8.10;72.00;;;;;;5070418;28;20101;-61
2022/04/30 03:36:35;;;;;;;1.50;1.40;;;8.20;72.10;;;;;;5101353;28;20385;-61
2022/04/30 03:39:02;;;;;;;1.42;1.15;;;8.10;72.00;;;;;;5074936;28;20123;-61
2022/04/30 03:41:28;;;;;;;2.78;1.52;;;8.10;72.10;;;;;;5088626;28;20334;-61
2022/04/30 03:43:53;;;;;;;1.67;1.27;;;8.10;72.20;;;;;;5087771;28;20031;-61
2022/04/30 03:46:19;;;;;;;1.98;1.70;;;8.10;72.20;;;;;;5106101;28;20016;-61
2022/04/30 03:48:45;;;;;;;1.35;1.25;;;8.10;72.30;;;;;;5106229;28;20024;-61
2022/04/30 03:51:11;;;;;;;1.63;1.40;;;8.10;72.40;;;;;;5103792;28;20028;-61
2022/04/30 03:53:36;;;;;;;1.50;1.13;;;8.10;72.60;;;;;;5100042;28;20026;-61
2022/04/30 03:56:02;;;;;;;3.85;1.58;;;8.00;72.60;;;;;;5074806;28;20032;-62
2022/04/30 03:58:28;;;;;;;1.77;1.17;;;8.00;72.70;;;;;;5102126;28;20042;-61
2022/04/30 04:00:54;;;;;;;1.63;1.35;;;8.00;72.70;;;;;;5101076;28;20063;-61
2022/04/30 04:03:21;;;;;;;4.22;2.05;;;8.00;72.80;;;;;;5092326;28;20055;-61
2022/04/30 04:05:49;;;;;;;1.70;1.60;;;8.00;72.80;;;;;;5096107;28;20024;-61
2022/04/30 04:08:15;;;;;;;2.75;1.67;;;8.00;72.80;;;;;;5109355;28;20028;-61
2022/04/30 04:10:41;;;;;;;3.83;1.50;;;8.00;72.90;;;;;;5108589;28;20077;-61
2022/04/30 04:18:36;;;;;;;2.08;1.40;;;7.90;73.10;;;;;;5127682;28;20489;-61
2022/04/30 04:21:02;;;;;;;0.98;0.82;;;7.90;73.20;;;;;;5110391;28;20027;-61
2022/04/30 04:23:28;;;;;;;2.47;1.40;;;7.80;73.40;;;;;;5116895;27;20039;-61
2022/04/30 04:26:00;;;;;;;2.38;2.00;;;7.90;73.60;;;;;;5133248;27;20027;-61
2022/04/30 04:28:27;;;;;;;2.15;1.70;;;7.90;73.60;;;;;;5133013;27;20058;-61
2022/04/30 04:30:53;;;;;;;1.70;1.58;;;7.90;73.80;;;;;;5120496;27;20464;-61
2022/04/30 04:33:18;;;;;;;2.35;1.27;;;7.80;73.70;;;;;;5124233;27;20094;-61
2022/04/30 04:35:44;;;;;;;1.38;1.25;;;7.80;73.80;;;;;;5114659;27;20042;-61
2022/04/30 04:38:10;;;;;;;1.65;1.52;;;7.80;73.70;;;;;;5133270;27;20031;-61
2022/04/30 04:40:35;;;;;;;3.95;1.67;;;7.80;73.80;;;;;;5127482;27;20032;-61
2022/04/30 04:43:01;;;;;;;1.40;1.30;;;7.80;73.90;;;;;;5094237;28;20047;-61
2022/04/30 04:45:27;;;;;;;5.00;1.83;;;7.70;73.90;;;;;;5088061;27;20439;-61
2022/04/30 04:47:54;;;;;;;1.70;1.40;;;7.70;74.00;;;;;;5114270;27;20023;-61
2022/04/30 04:50:22;;;;;;;1.88;1.35;;;7.70;74.10;;;;;;5133455;27;20050;-61
2022/04/30 04:52:48;;;;;;;1.67;1.58;;;7.70;74.20;;;;;;5108475;27;20020;-61
2022/04/30 04:55:15;;;;;;;2.75;2.05;;;7.80;74.20;;;;;;5093588;28;20528;-61
2022/04/30 04:57:41;;;;;;;1.92;1.50;;;7.80;74.40;;;;;;5092793;28;20089;-61
2022/04/30 05:00:09;;;;;;;2.17;1.80;;;7.80;74.40;;;;;;5092552;28;20038;-61
2022/04/30 05:02:35;;;;;;;3.45;1.83;;;7.80;74.30;;;;;;5108926;27;20103;-61
2022/04/30 05:05:01;;;;;;;3.70;1.20;;;7.90;74.40;;;;;;5072650;28;20024;-61
2022/04/30 05:07:27;;;;;;;2.20;1.63;;;7.90;74.40;;;;;;5082527;28;20134;-61
2022/04/30 05:09:53;;;;;;;2.00;1.40;;;7.90;74.50;;;;;;5095950;28;20039;-61
2022/04/30 05:12:19;;;;;;;1.30;1.20;;;7.90;74.50;;;;;;5077808;28;20020;-61
2022/04/30 05:14:46;;;;;;;1.35;1.25;;;8.00;74.70;;;;;;5095776;28;20028;-61
2022/04/30 05:17:12;;;;;;;1.80;1.50;;;8.00;74.70;;;;;;5074513;27;20028;-61
2022/04/30 05:19:38;;;;;;;3.53;1.58;;;8.00;74.60;;;;;;5073043;28;20032;-61
2022/04/30 05:22:03;;;;;;;3.80;1.55;;;8.00;74.80;;;;;;5076952;28;20039;-61
2022/04/30 05:24:29;;;;;;;2.90;1.75;;;8.10;74.90;;;;;;5092877;28;20044;-61
2022/04/30 05:26:55;;;;;;;2.67;1.55;;;8.10;75.00;;;;;;5075650;28;20108;-61
2022/04/30 05:29:21;;;;;;;1.85;1.27;;;8.10;74.90;;;;;;5091431;27;20020;-61
2022/04/30 05:31:46;;;;;;;1.05;0.98;;;8.20;75.00;;;;;;5071844;28;20040;-61
2022/04/30 05:34:12;;;;;;;3.72;2.17;;;8.20;75.10;;;;;;5080603;28;20402;-61
2022/04/30 05:36:38;;;;;;;3.90;1.75;;;8.30;75.00;;;;;;5097795;27;20112;-61
2022/04/30 05:39:04;;;;;;;1.45;1.10;;;8.30;75.10;;;;;;5107111;27;20027;-61
2022/04/30 05:41:30;;;;;;;9.68;1.63;;;8.40;75.00;;;;;;5072172;28;20040;-61
2022/04/30 05:43:56;;;;;;;2.33;1.42;;;8.40;75.00;;;;;;5125352;27;20029;-61
2022/04/30 05:46:22;;;;;;;1.25;1.15;;;8.50;75.20;;;;;;5122191;27;20031;-61
2022/04/30 05:48:48;;;;;;;1.95;1.23;;;8.50;75.00;;;;;;5110720;27;20047;-62
2022/04/30 05:51:14;;;;;;;1.05;0.98;;;8.50;74.90;;;;;;5095152;28;20020;-61
2022/04/30 05:53:39;;;;;;;1.90;1.42;;;8.60;75.00;;;;;;5111596;28;20027;-62
2022/04/30 05:56:05;;;;;;;1.42;1.33;;;8.70;75.00;;;;;;5113149;27;20081;-62
2022/04/30 05:58:31;;;;;;;1.17;1.00;;;8.70;75.20;;;;;;5110860;28;20106;-62
2022/04/30 06:00:56;;;;;;;1.08;0.98;;;8.80;75.10;;;;;;5110965;28;20390;-62
2022/04/30 06:03:22;;;;;;;1.70;1.33;;;8.80;75.10;;;;;;5126747;27;20061;-62
2022/04/30 06:05:48;;;;;;;3.00;1.17;;;8.80;75.10;;;;;;5120288;27;20023;-62
2022/04/30 06:08:13;;;;;;;3.50;1.55;;;8.90;75.00;;;;;;5112904;27;20036;-61
2022/04/30 06:10:39;;;;;;;2.70;1.38;;;8.90;75.10;;;;;;5096280;28;20028;-62
2022/04/30 06:13:05;;;;;;;0.95;0.95;;;9.00;75.00;;;;;;5094457;28;20052;-62
2022/04/30 06:15:31;;;;;;;0.82;0.80;;;9.00;75.00;;;;;;5061745;28;20098;-62
2022/04/30 06:17:56;;;;;;;2.17;1.10;;;9.10;75.20;;;;;;5092754;28;20031;-62
2022/04/30 06:20:22;;;;;;;1.40;1.08;;;9.10;75.00;;;;;;5107413;28;20034;-62
2022/04/30 06:22:48;;;;;;;1.75;1.42;;;9.20;75.50;;;;;;5111059;28;20113;-62
2022/04/30 06:25:13;;;;;;;0.70;0.57;;;9.20;75.20;;;;;;5098281;28;20028;-61
2022/04/30 06:27:40;;;;;;;3.55;1.13;;;9.30;75.00;;;;;;5089817;28;20115;-61
2022/04/30 06:30:07;;;;;;;0.60;0.60;;;9.30;75.00;;;;;;5089417;28;20025;-62
2022/04/30 06:32:33;;;;;;;0.68;0.63;;;9.40;75.00;;;;;;5090005;28;20119;-62
2022/04/30 06:35:00;;;;;;;1.13;1.00;;;9.50;74.80;;;;;;5101933;27;20052;-62
2022/04/30 06:37:25;;;;;;;0.88;0.88;;;9.50;74.70;;;;;;5096890;27;20042;-62
2022/04/30 06:39:51;;;;;;;3.08;1.00;;;9.60;74.60;;;;;;5094069;28;20123;-62
2022/04/30 06:42:17;;;;;;;0.82;0.82;;;9.60;74.60;;;;;;5109201;27;20067;-62
2022/04/30 06:44:43;;;;;;;1.65;1.08;;;9.60;74.50;;;;;;5110046;28;20089;-62
2022/04/30 06:47:09;;;;;;;2.35;1.40;;;9.70;74.40;;;;;;5109571;28;20043;-61
2022/04/30 06:49:35;;;;;;;0.47;0.47;;;9.70;74.30;;;;;;5110479;28;20062;-62
2022/04/30 06:52:01;;;;;;;0.80;0.70;;;9.80;74.30;;;;;;5111890;27;20038;-62
2022/04/30 06:57:11;;;;;;;0.70;0.70;;;9.90;74.40;;;;;;5089625;28;20142;-62
2022/04/30 06:59:41;;;;;;;1.38;0.70;;;9.90;74.10;;;;;;5088649;28;20147;-62
2022/04/30 07:02:17;;;;;;;1.05;0.90;;;10.00;74.00;;;;;;5091322;28;21381;-62
2022/04/30 07:04:43;;;;;;;0.77;0.77;;;10.10;73.90;;;;;;5097160;28;20043;-62
2022/04/30 07:07:10;;;;;;;0.88;0.88;;;10.10;73.60;;;;;;5095223;28;20114;-63
2022/04/30 07:09:37;;;;;;;1.33;0.73;;;10.20;73.30;;;;;;5096980;27;20432;-62
2022/04/30 07:12:06;;;;;;;0.65;0.63;;;10.30;73.10;;;;;;5074706;28;20106;-62
2022/04/30 07:14:35;;;;;;;0.65;0.63;;;10.40;72.80;;;;;;5100138;28;20129;-62
2022/04/30 07:17:02;;;;;;;1.33;0.85;;;10.40;72.40;;;;;;5077366;28;20035;-62
2022/04/30 07:19:28;;;;;;;1.30;0.93;;;10.50;72.10;;;;;;5087890;28;20114;-62
2022/04/30 07:21:54;;;;;;;1.20;0.90;;;10.60;71.50;;;;;;5101603;27;20146;-62
2022/04/30 07:24:19;;;;;;;3.03;1.00;;;10.60;71.10;;;;;;5107995;28;20016;-63
2022/04/30 07:26:45;;;;;;;3.03;1.65;;;10.70;71.20;;;;;;5102311;27;20115;-63
2022/04/30 07:29:11;;;;;;;0.60;0.60;;;10.80;71.00;;;;;;5094101;27;20055;-64
2022/04/30 07:31:37;;;;;;;0.60;0.60;;;10.90;70.70;;;;;;5108100;27;20370;-62
2022/04/30 07:34:03;;;;;;;0.90;0.77;;;11.10;70.50;;;;;;5090189;28;20313;-63
2022/04/30 07:36:29;;;;;;;0.57;0.57;;;11.20;69.60;;;;;;5111846;27;20035;-64
2022/04/30 07:38:55;;;;;;;0.60;0.60;;;11.40;69.40;;;;;;5094235;28;20040;-63
2022/04/30 07:41:21;;;;;;;0.95;0.82;;;11.40;68.60;;;;;;5103084;28;20406;-62
2022/04/30 07:43:46;;;;;;;1.10;0.98;;;11.50;68.40;;;;;;5110983;27;20076;-63
2022/04/30 07:46:12;;;;;;;1.15;0.80;;;11.60;68.10;;;;;;5117012;28;20118;-63
2022/04/30 07:48:38;;;;;;;0.88;0.80;;;11.70;67.70;;;;;;5107477;28;20039;-64
2022/04/30 07:51:23;;;;;;;0.80;0.80;;;11.80;67.60;;;;;;5121424;28;20023;-63
2022/04/30 07:53:49;;;;;;;0.90;0.90;;;11.70;66.30;;;;;;5092637;28;20087;-63
2022/04/30 07:56:15;;;;;;;3.03;1.08;;;11.70;66.70;;;;;;5090149;28;20478;-63
2022/04/30 07:58:41;;;;;;;1.23;0.47;;;11.70;66.70;;;;;;5086409;28;20028;-63
2022/04/30 08:01:07;;;;;;;1.40;0.88;;;11.70;66.30;;;;;;5102516;27;21632;-63
2022/04/30 08:03:34;;;;;;;0.73;0.70;;;11.70;66.20;;;;;;5102509;27;20044;-63
2022/04/30 08:06:01;;;;;;;0.60;0.60;;;11.70;66.40;;;;;;5113409;27;20024;-63
2022/04/30 08:08:27;;;;;;;1.02;0.40;;;11.80;66.40;;;;;;5118330;27;20530;-63
2022/04/30 08:10:53;;;;;;;0.65;0.65;;;11.80;66.40;;;;;;5109577;28;20716;-63
2022/04/30 08:13:18;;;;;;;5.43;1.35;;;11.70;66.10;;;;;;5093409;28;20070;-63
2022/04/30 08:15:44;;;;;;;1.10;1.02;;;11.70;66.00;;;;;;5073957;28;20407;-63
2022/04/30 08:18:11;;;;;;;1.17;0.95;;;11.60;66.20;;;;;;5080314;27;20126;-64
2022/04/30 08:20:38;;;;;;;2.00;1.42;;;11.50;66.50;;;;;;5095181;27;20097;-63
2022/04/30 08:23:06;;;;;;;2.63;1.10;;;11.40;66.90;;;;;;5073992;28;20016;-63
2022/04/30 08:25:33;;;;;;;1.60;1.10;;;11.40;67.30;;;;;;5103136;27;20023;-63
2022/04/30 08:27:59;;;;;;;1.33;1.23;;;11.40;67.50;;;;;;5106723;28;20027;-63
2022/04/30 08:30:24;;;;;;;1.95;1.75;;;11.30;67.70;;;;;;5102906;27;20031;-63
2022/04/30 08:32:50;;;;;;;1.63;1.52;;;11.30;67.80;;;;;;5094528;28;20126;-63
2022/04/30 08:35:16;;;;;;;0.90;0.82;;;11.30;68.00;;;;;;5107386;27;20054;-63
2022/04/30 08:37:41;;;;;;;1.90;1.10;;;11.20;68.00;;;;;;5105525;27;20035;-64
2022/04/30 08:40:07;;;;;;;2.63;1.95;;;11.20;68.10;;;;;;5093512;27;20035;-63
2022/04/30 08:42:33;;;;;;;5.28;1.67;;;11.30;68.10;;;;;;5092696;28;20044;-63
2022/04/30 08:45:02;;;;;;;1.55;1.00;;;11.30;68.10;;;;;;5057865;28;20031;-63
2022/04/30 08:47:29;;;;;;;1.65;1.17;;;11.40;67.90;;;;;;5092216;28;20107;-64
2022/04/30 08:49:57;;;;;;;1.27;1.17;;;11.50;67.90;;;;;;5109692;27;20035;-63
2022/04/30 08:52:22;;;;;;;12.85;1.67;;;11.50;67.80;;;;;;5105048;28;20038;-63
2022/04/30 08:54:48;;;;;;;0.93;0.93;;;11.60;67.60;;;;;;5067343;28;20032;-64
2022/04/30 08:57:15;;;;;;;3.42;1.15;;;11.60;67.40;;;;;;5112430;28;20070;-64
2022/04/30 08:59:42;;;;;;;1.77;1.40;;;11.70;67.30;;;;;;5102867;28;20040;-63
2022/04/30 09:02:12;;;;;;;2.00;1.33;;;11.70;67.10;;;;;;5097946;27;20413;-63
2022/04/30 09:04:45;;;;;;;1.98;1.58;;;11.80;67.00;;;;;;5133394;27;20040;-63
2022/04/30 09:07:22;;;;;;;0.60;0.50;;;11.90;66.70;;;;;;5116305;27;20023;-63
2022/04/30 09:09:56;;;;;;;0.90;0.80;;;12.00;66.50;;;;;;5124132;27;20115;-64
2022/04/30 09:12:21;;;;;;;2.05;0.60;;;12.20;66.20;;;;;;5111512;27;20132;-64
2022/04/30 09:14:47;;;;;;;1.30;1.17;;;12.30;65.90;;;;;;5119948;27;20054;-63
2022/04/30 09:17:18;;;;;;;2.05;1.00;;;12.40;65.50;;;;;;5102112;28;20533;-63
2022/04/30 09:19:54;;;;;;;6.13;1.58;;;12.50;65.20;;;;;;5100632;28;20097;-62
2022/04/30 09:22:38;;;;;;;1.55;1.45;;;12.60;65.10;;;;;;5098543;28;20102;-64
2022/04/30 09:25:12;;;;;;;1.60;1.50;;;12.60;64.00;;;;;;5092131;27;20108;-64
2022/04/30 09:27:44;;;;;;;2.95;1.65;;;12.50;64.20;;;;;;5079355;28;20043;-63
2022/04/30 09:30:17;;;;;;;1.15;1.05;;;12.50;64.20;;;;;;5098821;28;20023;-63
2022/04/30 09:32:43;;;;;;;1.23;0.95;;;12.60;64.40;;;;;;5074357;28;20117;-63
2022/04/30 09:38:08;;;;;;;1.63;1.10;;;12.80;63.90;;;;;;5093415;28;20077;-63
2022/04/30 09:40:34;;;;;;;0.80;0.80;;;12.90;63.40;;;;;;5091455;28;20047;-63
2022/04/30 09:43:05;;;;;;;1.30;1.10;;;13.00;63.00;;;;;;5091886;28;20044;-64
2022/04/30 09:45:32;;;;;;;1.35;0.63;;;13.10;62.90;;;;;;5089804;28;20024;-60
2022/04/30 09:48:00;;;;;;;1.88;1.38;;;13.10;62.50;;;;;;5093156;28;20044;-60
2022/04/30 09:56:10;;;;;;;1.73;1.33;;;12.90;62.70;;;;;;5095686;28;20054;-60
2022/04/30 09:58:39;;;;;;;1.20;1.00;;;12.90;62.30;;;;;;5095397;28;20039;-60
2022/04/30 10:01:06;;;;;;;1.60;1.20;;;12.80;62.10;;;;;;5090361;28;20146;-60
2022/04/30 10:03:33;;;;;;;0.85;0.80;;;12.80;62.60;;;;;;5075776;28;20196;-60
2022/04/30 10:06:05;;;;;;;1.10;1.00;;;12.90;62.20;;;;;;5090087;28;20105;-60
2022/04/30 10:08:39;;;;;;;1.17;0.90;;;12.90;61.70;;;;;;5096543;28;20451;-64
2022/04/30 10:11:34;;;;;;;1.60;1.10;;;12.90;61.80;;;;;;5093240;28;20026;-60
2022/04/30 10:14:18;;;;;;;4.22;1.00;;;12.80;61.60;;;;;;5085925;28;20023;-60
2022/04/30 10:17:11;;;;;;;2.40;1.15;;;12.60;62.00;;;;;;5090803;27;20032;-60
2022/04/30 10:19:34;;;;;;;1.23;0.95;;;12.50;62.10;;;;;;5088143;27;20031;-60
2022/04/30 10:22:14;;;;;;;2.00;1.30;;;12.30;62.50;;;;;;5109249;27;20054;-59
2022/04/30 10:24:48;;;;;;;4.45;1.48;;;12.30;62.90;;;;;;5104864;28;20023;-60
2022/04/30 10:27:15;;;;;;;2.08;1.15;;;12.20;63.00;;;;;;5098458;28;20028;-59
2022/04/30 10:30:17;;;;;;;1.38;1.00;;;12.10;63.20;;;;;;5099293;28;20027;-60
2022/04/30 10:32:53;;;;;;;4.28;1.75;;;12.10;63.30;;;;;;5078373;28;20047;-63
2022/04/30 10:35:31;;;;;;;1.45;1.35;;;12.10;63.50;;;;;;5110684;27;20035;-63
2022/04/30 10:38:17;;;;;;;3.72;1.50;;;12.00;63.40;;;;;;5108136;27;20493;-64
2022/04/30 10:40:42;;;;;;;1.85;1.17;;;12.00;63.70;;;;;;5091071;28;20386;-63
2022/04/30 10:43:20;;;;;;;1.23;1.08;;;12.00;63.80;;;;;;5118364;27;20051;-64
2022/04/30 10:45:46;;;;;;;1.38;1.23;;;12.00;63.90;;;;;;5121183;27;20031;-65
2022/04/30 10:48:12;;;;;;;1.73;0.80;;;12.00;64.10;;;;;;5094094;28;20470;-64
2022/04/30 10:50:38;;;;;;;1.98;1.55;;;11.90;64.10;;;;;;5108735;28;20046;-64
2022/04/30 10:53:06;;;;;;;2.17;1.27;;;12.00;64.30;;;;;;5098128;28;20031;-63
2022/04/30 10:55:32;;;;;;;1.70;1.40;;;12.00;64.30;;;;;;5091303;28;20016;-64
2022/04/30 10:57:58;;;;;;;2.00;1.48;;;12.10;64.30;;;;;;5099149;28;20048;-60
2022/04/30 11:00:26;;;;;;;1.33;1.10;;;12.20;64.30;;;;;;5102002;28;20031;-59
2022/04/30 11:02:51;;;;;;;1.92;0.95;;;12.20;64.20;;;;;;5099405;27;20169;-59
2022/04/30 11:05:18;;;;;;;1.45;1.20;;;12.20;64.10;;;;;;5100904;27;20118;-59
2022/04/30 11:07:45;;;;;;;1.60;1.27;;;12.20;64.00;;;;;;5103305;28;20045;-59
2022/04/30 11:10:11;;;;;;;1.77;0.90;;;12.20;64.00;;;;;;5109288;28;20020;-59
2022/04/30 11:12:36;;;;;;;6.25;1.20;;;12.20;63.90;;;;;;5114492;27;20039;-59
2022/04/30 11:15:03;;;;;;;1.75;1.17;;;12.30;64.00;;;;;;5091425;28;20039;-59
2022/04/30 11:17:28;;;;;;;7.78;1.55;;;12.30;64.60;;;;;;5098390;27;20110;-59
2022/04/30 11:19:55;;;;;;;0.82;0.82;;;12.40;63.90;;;;;;5088181;28;20312;-59
2022/04/30 11:22:22;;;;;;;3.30;1.13;;;12.40;63.60;;;;;;5096974;28;20035;-59
2022/04/30 11:24:49;;;;;;;1.30;1.20;;;12.40;63.50;;;;;;5094758;28;20039;-60
2022/04/30 11:27:15;;;;;;;1.95;1.35;;;12.50;63.60;;;;;;5100981;28;20052;-59
2022/04/30 11:29:56;;;;;;;1.77;1.55;;;12.50;63.40;;;;;;5103600;28;20031;-59
2022/04/30 11:32:26;;;;;;;1.20;1.10;;;12.60;63.30;;;;;;5099271;28;20027;-59
2022/04/30 11:34:54;;;;;;;2.58;1.33;;;12.70;63.20;;;;;;5098432;27;20342;-59
2022/04/30 11:37:20;;;;;;;1.77;1.20;;;12.70;62.70;;;;;;5108025;28;20035;-60
2022/04/30 11:39:46;;;;;;;1.65;1.50;;;12.70;62.40;;;;;;5092412;28;20028;-59
2022/04/30 11:42:12;;;;;;;1.17;1.17;;;12.70;62.30;;;;;;5063444;28;20044;-60
2022/04/30 11:44:39;;;;;;;1.02;0.93;;;12.80;62.20;;;;;;5070577;28;20053;-59
2022/04/30 11:47:11;;;;;;;1.42;1.33;;;12.90;62.00;;;;;;5075933;28;20040;-60
2022/04/30 11:49:37;;;;;;;4.78;0.98;;;13.00;61.80;;;;;;5065688;28;20119;-59
2022/04/30 11:52:03;;;;;;;1.48;1.02;;;13.10;61.40;;;;;;5058110;28;20479;-60
2022/04/30 11:54:29;;;;;;;2.38;0.95;;;13.20;61.20;;;;;;5066456;28;20387;-60
2022/04/30 11:56:57;;;;;;;3.30;1.20;;;13.40;61.10;;;;;;5066893;28;20024;-59
2022/04/30 11:59:36;;;;;;;1.15;1.00;;;13.50;60.60;;;;;;5066722;28;20036;-59
2022/04/30 12:02:04;;;;;;;0.75;0.70;;;13.60;59.90;;;;;;5068235;28;20021;-59
2022/04/30 12:04:37;;;;;;;1.58;1.30;;;13.70;60.10;;;;;;5051800;28;20025;-59
2022/04/30 12:07:05;;;;;;;1.15;0.98;;;13.80;59.60;;;;;;5050378;28;20596;-59
2022/04/30 12:09:32;;;;;;;2.90;1.35;;;13.90;59.10;;;;;;5056759;28;20040;-63
2022/04/30 12:12:00;;;;;;;1.17;1.08;;;14.00;59.30;;;;;;5064926;28;20700;-63
2022/04/30 12:14:26;;;;;;;1.02;0.90;;;14.20;59.30;;;;;;5056391;28;20013;-63
2022/04/30 12:16:54;;;;;;;1.50;1.15;;;14.30;59.20;;;;;;5051399;28;20094;-63
2022/04/30 12:25:12;;;;;;;2.28;0.90;;;14.60;57.80;;;;;;5068015;28;20046;-63
2022/04/30 12:27:40;;;;;;;0.68;0.68;;;14.70;56.80;;;;;;5067916;28;20051;-63
2022/04/30 12:30:16;;;;;;;14.10;1.10;;;14.70;57.10;;;;;;5069211;28;20044;-63
2022/04/30 12:32:54;;;;;;;0.73;0.73;;;14.90;57.20;;;;;;5068869;28;20040;-63
2022/04/30 12:35:30;;;;;;;1.60;0.80;;;15.00;57.20;;;;;;5069281;28;20502;-63
2022/04/30 12:38:10;;;;;;;0.80;0.60;;;15.00;56.70;;;;;;5071152;28;20137;-59
2022/04/30 12:40:41;;;;;;;2.58;0.88;;;15.00;56.30;;;;;;5068966;28;20029;-60
2022/04/30 12:43:07;;;;;;;0.52;0.52;;;15.00;56.10;;;;;;5093773;28;20052;-59
2022/04/30 12:45:33;;;;;;;3.15;1.40;;;14.90;57.00;;;;;;5129757;27;20039;-59
2022/04/30 12:48:00;;;;;;;0.60;0.60;;;14.80;55.90;;;;;;5127700;27;20080;-59
2022/04/30 12:50:26;;;;;;;2.50;1.42;;;14.70;55.80;;;;;;5109766;27;20074;-59
2022/04/30 12:52:53;;;;;;;1.08;0.75;;;14.70;55.80;;;;;;5101304;28;20036;-59
2022/04/30 12:55:19;;;;;;;1.33;1.15;;;14.60;56.30;;;;;;5092216;28;20394;-59
2022/04/30 12:57:48;;;;;;;1.13;1.00;;;14.60;56.30;;;;;;5095532;28;20036;-59
2022/04/30 13:00:15;;;;;;;15.15;1.15;;;14.60;56.10;;;;;;5100528;27;20453;-59
2022/04/30 13:02:42;;;;;;;1.52;0.60;;;14.60;56.00;;;;;;5091669;28;20036;-59
2022/04/30 13:05:08;;;;;;;2.47;0.93;;;14.60;56.00;;;;;;5076212;28;20428;-59
2022/04/30 13:07:36;;;;;;;5.55;1.10;;;14.60;55.90;;;;;;5105563;28;20036;-60
2022/04/30 13:15:30;;;;;;;0.80;0.80;;;14.50;55.60;;;;;;5106768;28;20544;-59
2022/04/30 13:17:56;;;;;;;1.08;0.77;;;14.50;55.70;;;;;;5104636;28;20031;-60
2022/04/30 13:20:22;;;;;;;0.70;0.70;;;14.60;55.70;;;;;;5112968;27;20534;-59
2022/04/30 13:22:49;;;;;;;1.05;0.85;;;14.60;55.60;;;;;;5078012;27;20081;-60
2022/04/30 13:25:16;;;;;;;1.50;1.00;;;14.60;55.60;;;;;;5097774;27;20027;-60
2022/04/30 13:27:42;;;;;;;2.47;0.88;;;14.60;55.60;;;;;;5097378;28;20114;-59
2022/04/30 13:30:09;;;;;;;0.57;0.50;;;14.60;55.70;;;;;;5106822;27;20111;-60
2022/04/30 13:32:34;;;;;;;0.70;0.50;;;14.60;55.90;;;;;;5113268;27;20035;-59